Capitol Logistics 94




RJAA
Tokyo-Narita International Airport
Tokyo, JP
KLAX
Los Angeles International Airport
Los Angeles, US

Route Details

Aircraft Information
Group: Large Widebodies
Types: B744,MD11
Route Data
Demand: H
Distance: 4732nm
Duration: 9h 31m
Recm'd Route: GULBO Y808 NOLAX Y814 AVBET OTR9 EMRON 4000N/15500E 4100N/16000E 4200N/16500E 4300N/17000E 4300N/17500E 4300N/18000E 4300N/17500W 4300N/17000W 4500N/16000W 4600N/15000W 4400N/14000W 4000N/13000W DACEM PAINT PIRAT BURGL ZUUMA3
Origin Wx: RJAA 270600Z 13012KT 9999 FEW010 BKN015 BKN020 21/19 Q0997 NOSIG RMK 1CU010 5CU015 7CU020 A2944
Dest. Wx: KLAX 270553Z 24004KT 10SM SCT015 BKN020 17/12 A3003 RMK AO2 SLP165 T01670117 10189 20161 51010
Notes:

Financial History
Total Freight: 168,803lbs
Average Load: 168,803lbs/flt
Fuel Used: 266,817lbs
Avg. Fuel Used: 266,817lbs/flt
Fuel Expense: $85,381
Avg. Fuel Expense: $85,381
Avg. Fuel Cost: $0.32/lbs
Total Gross Income: $573,930
Pilot Pay: $239
Total Expenses: $72,276
Total Revenue: $414,088
Average Revenue: $573,930.19